Time;durP1;ratioP1;P1;durP2;ratioP2;P2;SDS_P1;SDS_P2;PMS_P1;PMS_P2;Temp;Humidity;BMP_temperature;BMP_pressure;BME280_temperature;BME280_humidity;BME280_pressure;Samples;Min_cycle;Max_cycle;Signal;HPM_P1;HPM_P2
2022/07/09 00:01:47;;;;;;;2.90;0.47;;;;;;;22.49;54.60;102567.53;7380456;19;20078;-65
2022/07/09 00:04:14;;;;;;;2.13;0.30;;;;;;;22.46;55.05;102573.25;7381560;19;20036;-65
2022/07/09 00:06:58;;;;;;;2.08;0.50;;;;;;;22.45;55.35;102576.16;7381971;19;20392;-65
2022/07/09 00:09:37;;;;;;;1.98;0.40;;;;;;;22.42;55.05;102571.97;7381883;19;20014;-65
2022/07/09 00:12:04;;;;;;;3.65;0.60;;;;;;;22.39;55.30;102574.22;7382679;19;20014;-65
2022/07/09 00:14:32;;;;;;;2.15;0.40;;;;;;;22.38;55.26;102577.91;7381969;19;20559;-65
2022/07/09 00:16:59;;;;;;;1.92;0.40;;;;;;;22.34;55.33;102579.31;7380849;19;20036;-65
2022/07/09 00:19:27;;;;;;;1.88;0.45;;;;;;;22.32;55.87;102578.66;7385946;19;20043;-69
2022/07/09 00:21:54;;;;;;;1.08;0.40;;;;;;;22.30;55.97;102576.16;7382909;19;20013;-63
2022/07/09 00:24:21;;;;;;;3.35;0.50;;;;;;;22.33;55.51;102578.47;7382191;19;20022;-63
2022/07/09 00:26:48;;;;;;;0.98;0.40;;;;;;;22.28;55.53;102574.69;7381499;19;20018;-63
2022/07/09 00:29:16;;;;;;;2.78;0.38;;;;;;;22.25;55.66;102577.75;7383625;19;20028;-63
2022/07/09 00:31:45;;;;;;;2.05;0.30;;;;;;;22.21;55.73;102584.50;7383482;19;20025;-63
2022/07/09 00:34:13;;;;;;;1.02;0.40;;;;;;;22.16;56.34;102579.69;7383079;19;20038;-63
2022/07/09 00:36:41;;;;;;;1.65;0.30;;;;;;;22.13;56.38;102580.91;7380764;19;20018;-64
2022/07/09 00:39:09;;;;;;;1.70;0.40;;;;;;;22.10;56.43;102581.25;7381030;19;20049;-61
2022/07/09 00:41:36;;;;;;;1.00;0.40;;;;;;;22.07;56.46;102587.00;7382557;19;20138;-62
2022/07/09 00:44:03;;;;;;;1.17;0.52;;;;;;;22.08;56.63;102595.88;7383667;19;20018;-63
2022/07/09 00:46:32;;;;;;;1.77;0.40;;;;;;;22.03;56.36;102593.75;7383162;19;20017;-62
2022/07/09 00:49:03;;;;;;;1.67;0.40;;;;;;;22.02;56.37;102588.56;7382912;19;20018;-62
2022/07/09 00:51:31;;;;;;;2.45;0.40;;;;;;;21.96;57.26;102592.00;7382738;19;20010;-65
2022/07/09 00:54:00;;;;;;;1.60;0.40;;;;;;;21.92;57.01;102596.03;7380650;19;20033;-65
2022/07/09 00:56:35;;;;;;;4.03;0.40;;;;;;;21.93;56.85;102598.53;7382087;19;20583;-62
2022/07/09 00:59:07;;;;;;;0.80;0.30;;;;;;;21.88;57.06;102603.63;7382793;19;20036;-63
2022/07/09 01:01:34;;;;;;;3.40;0.30;;;;;;;21.79;57.44;102598.53;7379785;19;20018;-63
2022/07/09 01:04:01;;;;;;;1.73;0.30;;;;;;;21.74;57.73;102602.56;7377995;19;20450;-63
2022/07/09 01:06:38;;;;;;;0.57;0.30;;;;;;;21.71;57.68;102600.25;7379618;19;20096;-63
2022/07/09 01:09:05;;;;;;;2.20;0.32;;;;;;;21.65;58.07;102602.81;7384615;19;20006;-63
2022/07/09 01:11:33;;;;;;;0.85;0.30;;;;;;;21.54;58.14;102596.03;7385979;19;20014;-63
2022/07/09 01:14:00;;;;;;;0.82;0.38;;;;;;;21.50;58.78;102596.59;7389396;19;20025;-64
2022/07/09 01:16:34;;;;;;;2.08;0.35;;;;;;;21.48;58.87;102599.47;7387030;19;20439;-64
2022/07/09 01:19:01;;;;;;;1.33;0.30;;;;;;;21.41;59.00;102601.19;7389843;19;20015;-64
2022/07/09 01:21:28;;;;;;;0.70;0.40;;;;;;;21.33;59.37;102590.56;7387972;19;20018;-64
2022/07/09 01:23:56;;;;;;;1.00;0.30;;;;;;;21.30;59.74;102593.59;7387596;19;20031;-66
2022/07/09 01:26:36;;;;;;;2.50;0.30;;;;;;;21.25;59.95;102590.63;7385710;19;20018;-62
2022/07/09 01:29:03;;;;;;;1.15;0.28;;;;;;;21.20;60.23;102593.84;7391304;19;20632;-65
2022/07/09 01:31:29;;;;;;;0.95;0.38;;;;;;;21.16;60.13;102583.66;7388280;19;20014;-66
2022/07/09 01:33:56;;;;;;;0.70;0.30;;;;;;;21.11;60.75;102586.84;7386991;19;20022;-64
2022/07/09 01:36:23;;;;;;;1.77;0.25;;;;;;;21.02;60.62;102587.09;7386255;19;20452;-65
2022/07/09 01:38:50;;;;;;;0.95;0.30;;;;;;;20.99;60.87;102590.94;7385060;19;20015;-66
2022/07/09 01:41:17;;;;;;;0.47;0.20;;;;;;;21.00;61.01;102581.06;7388503;19;20021;-65
2022/07/09 01:43:44;;;;;;;2.97;0.30;;;;;;;20.97;61.55;102584.94;7388843;19;20442;-65
2022/07/09 01:46:11;;;;;;;1.95;0.30;;;;;;;20.97;61.39;102592.97;7388969;19;20106;-65
2022/07/09 01:48:42;;;;;;;2.65;0.30;;;;;;;20.93;61.88;102587.13;7387234;19;20026;-65
2022/07/09 01:51:09;;;;;;;0.95;0.20;;;;;;;20.92;62.12;102590.84;7384506;19;20006;-64
2022/07/09 01:53:37;;;;;;;0.93;0.20;;;;;;;20.88;62.18;102594.84;7385788;19;20083;-64
2022/07/09 01:56:08;;;;;;;1.10;0.50;;;;;;;20.88;62.17;102592.16;7386593;19;20018;-63
2022/07/09 01:58:35;;;;;;;1.65;0.30;;;;;;;20.84;62.53;102590.88;7387430;19;20022;-64
2022/07/09 02:01:03;;;;;;;1.55;0.20;;;;;;;20.83;62.53;102585.69;7387952;19;20019;-64
2022/07/09 02:03:30;;;;;;;0.98;0.30;;;;;;;20.81;62.81;102585.03;7383620;19;20086;-62
2022/07/09 02:05:57;;;;;;;1.75;0.30;;;;;;;20.84;63.10;102582.00;7383295;19;20510;-62
2022/07/09 02:08:24;;;;;;;0.68;0.20;;;;;;;20.82;63.18;102582.19;7385687;19;20034;-63
2022/07/09 02:10:50;;;;;;;1.48;0.28;;;;;;;20.85;63.26;102587.19;7387617;19;20331;-62
2022/07/09 02:13:18;;;;;;;0.80;0.20;;;;;;;20.87;63.40;102587.03;7386410;19;20033;-62
2022/07/09 02:15:45;;;;;;;2.60;0.28;;;;;;;20.80;62.92;102589.56;7385168;19;20010;-63
2022/07/09 02:18:12;;;;;;;1.65;0.20;;;;;;;20.80;63.13;102591.41;7387606;19;20014;-63
2022/07/09 02:20:39;;;;;;;0.80;0.30;;;;;;;20.71;63.66;102589.78;7382715;19;20022;-63
2022/07/09 02:23:07;;;;;;;1.10;0.20;;;;;;;20.67;63.33;102601.84;7381732;19;20030;-63
2022/07/09 02:25:34;;;;;;;2.58;0.30;;;;;;;20.64;63.45;102586.97;7384588;19;20028;-63
2022/07/09 02:28:01;;;;;;;1.48;0.30;;;;;;;20.64;63.67;102588.81;7386966;19;20142;-63
2022/07/09 02:30:30;;;;;;;0.75;0.30;;;;;;;20.64;63.86;102597.66;7387852;19;20018;-64
2022/07/09 02:32:56;;;;;;;3.13;0.30;;;;;;;20.64;63.91;102594.16;7386957;19;20025;-66
2022/07/09 02:35:23;;;;;;;0.50;0.20;;;;;;;20.64;63.92;102594.16;7383700;19;20451;-69
2022/07/09 02:37:50;;;;;;;0.80;0.30;;;;;;;20.63;64.15;102598.69;7384033;19;20022;-64
2022/07/09 02:40:17;;;;;;;0.50;0.25;;;;;;;20.62;64.11;102596.19;7383935;19;20549;-66
2022/07/09 02:42:44;;;;;;;0.40;0.20;;;;;;;20.62;63.90;102588.16;7387090;19;20188;-64
2022/07/09 02:45:11;;;;;;;1.48;0.30;;;;;;;20.63;64.00;102596.00;7385114;19;20014;-66
2022/07/09 02:47:38;;;;;;;0.77;0.30;;;;;;;20.64;63.93;102597.66;7384320;19;20054;-66
2022/07/09 02:50:05;;;;;;;1.65;0.30;;;;;;;20.63;64.50;102589.81;7384318;19;20467;-66
2022/07/09 02:52:32;;;;;;;3.50;0.30;;;;;;;20.62;64.42;102597.00;7385612;19;20027;-66
2022/07/09 02:54:59;;;;;;;2.92;0.30;;;;;;;20.61;64.08;102594.53;7383852;19;20018;-66
2022/07/09 02:57:26;;;;;;;1.33;0.30;;;;;;;20.60;64.14;102591.00;7385596;19;20018;-65
2022/07/09 02:59:53;;;;;;;0.70;0.30;;;;;;;20.56;64.66;102589.69;7385326;19;20014;-65
2022/07/09 03:02:20;;;;;;;2.33;0.30;;;;;;;20.49;64.97;102592.22;7384981;19;20010;-65
2022/07/09 03:04:47;;;;;;;2.05;0.30;;;;;;;20.41;65.18;102583.41;7382433;19;20114;-64
2022/07/09 03:07:14;;;;;;;1.30;0.22;;;;;;;20.35;65.54;102586.78;7382633;19;20759;-63
2022/07/09 03:09:41;;;;;;;0.52;0.20;;;;;;;20.31;65.67;102588.97;7385650;19;20014;-62
2022/07/09 03:12:08;;;;;;;1.63;0.32;;;;;;;20.28;66.03;102593.78;7382954;19;20046;-66
2022/07/09 03:14:35;;;;;;;0.90;0.30;;;;;;;20.22;66.37;102597.97;7386277;19;20022;-65
2022/07/09 03:17:02;;;;;;;0.55;0.30;;;;;;;20.22;66.38;102591.78;7383243;19;20013;-65
2022/07/09 03:19:29;;;;;;;0.63;0.30;;;;;;;20.21;66.21;102591.00;7386147;19;20552;-65
2022/07/09 03:21:56;;;;;;;1.02;0.30;;;;;;;20.20;66.27;102599.19;7384522;19;20089;-66
2022/07/09 03:24:23;;;;;;;1.85;0.40;;;;;;;20.18;66.52;102601.19;7384294;19;20020;-63
2022/07/09 03:26:50;;;;;;;0.50;0.30;;;;;;;20.14;66.49;102599.84;7385742;19;20478;-63
2022/07/09 03:29:17;;;;;;;2.90;0.40;;;;;;;20.10;66.74;102598.53;7385842;19;20488;-63
2022/07/09 03:31:44;;;;;;;1.25;0.30;;;;;;;20.03;67.22;102598.38;7382186;19;20018;-63
2022/07/09 03:34:11;;;;;;;2.17;0.40;;;;;;;20.00;66.98;102596.91;7384144;19;20022;-66
2022/07/09 03:36:38;;;;;;;1.67;0.40;;;;;;;19.98;67.45;102598.06;7379906;19;20412;-65
2022/07/09 03:39:05;;;;;;;1.05;0.50;;;;;;;19.94;67.37;102599.41;7381322;19;20022;-65
2022/07/09 03:41:32;;;;;;;1.15;0.40;;;;;;;19.94;67.87;102604.75;7384563;19;20018;-67
2022/07/09 03:43:58;;;;;;;0.98;0.47;;;;;;;19.91;67.80;102605.91;7383546;19;20426;-64
2022/07/09 03:46:25;;;;;;;1.15;0.40;;;;;;;19.91;68.08;102615.81;7382784;19;20021;-65
2022/07/09 03:48:52;;;;;;;2.05;0.50;;;;;;;19.87;67.87;102619.78;7383867;19;20022;-65
2022/07/09 03:51:19;;;;;;;2.75;0.50;;;;;;;19.84;68.42;102620.97;7382407;19;20369;-66
2022/07/09 03:53:46;;;;;;;1.33;0.50;;;;;;;19.84;68.97;102620.97;7382753;19;20010;-65
2022/07/09 03:56:13;;;;;;;2.33;0.47;;;;;;;19.80;68.95;102621.50;7381182;19;20011;-66
2022/07/09 03:58:40;;;;;;;1.95;0.60;;;;;;;19.74;69.02;102617.66;7384596;19;20022;-63
2022/07/09 04:01:07;;;;;;;1.15;0.50;;;;;;;19.74;69.35;102616.81;7382503;19;20084;-63
2022/07/09 04:03:34;;;;;;;1.75;0.60;;;;;;;19.70;69.24;102612.81;7383755;19;20017;-64
2022/07/09 04:06:01;;;;;;;3.03;0.60;;;;;;;19.69;69.37;102614.66;7377594;19;20014;-62
2022/07/09 04:08:28;;;;;;;1.73;0.40;;;;;;;19.65;70.05;102613.31;7381050;19;20018;-64
2022/07/09 04:10:55;;;;;;;3.85;0.60;;;;;;;19.61;70.22;102612.81;7384191;19;20006;-66
2022/07/09 04:13:22;;;;;;;1.00;0.40;;;;;;;19.61;70.32;102614.63;7382542;19;20014;-66
2022/07/09 04:15:49;;;;;;;2.67;0.60;;;;;;;19.59;70.20;102604.16;7383186;19;20105;-66
2022/07/09 04:18:16;;;;;;;2.53;0.50;;;;;;;19.58;70.43;102607.81;7380448;19;20111;-65
2022/07/09 04:20:43;;;;;;;2.63;0.60;;;;;;;19.59;70.45;102608.66;7382368;19;20022;-63
2022/07/09 04:23:10;;;;;;;1.02;0.50;;;;;;;19.57;70.50;102610.63;7381134;19;20050;-63
2022/07/09 04:25:37;;;;;;;1.33;0.50;;;;;;;19.57;70.48;102599.97;7380487;19;20574;-62
2022/07/09 04:28:05;;;;;;;2.70;0.93;;;;;;;19.58;70.82;102594.47;7383846;19;20031;-65
2022/07/09 04:30:32;;;;;;;1.50;0.70;;;;;;;19.51;70.78;102598.78;7382589;19;20597;-66
2022/07/09 04:33:00;;;;;;;1.20;0.50;;;;;;;19.51;71.04;102597.94;7383562;19;20015;-62
2022/07/09 04:35:27;;;;;;;2.47;0.57;;;;;;;19.47;71.36;102591.28;7382242;19;20036;-63
2022/07/09 04:37:55;;;;;;;1.00;0.40;;;;;;;19.44;71.64;102594.28;7380110;19;20579;-63
2022/07/09 04:40:21;;;;;;;1.48;0.55;;;;;;;19.44;71.54;102587.13;7379759;19;20024;-63
2022/07/09 04:42:48;;;;;;;1.10;0.60;;;;;;;19.44;71.56;102588.94;7383622;19;20025;-63
2022/07/09 04:45:15;;;;;;;1.52;0.60;;;;;;;19.39;72.01;102583.25;7390055;19;20094;-62
2022/07/09 04:47:48;;;;;;;1.48;0.60;;;;;;;19.37;71.89;102580.75;7391711;19;20086;-63
2022/07/09 04:50:15;;;;;;;1.73;0.60;;;;;;;19.36;72.11;102578.22;7389010;19;20018;-63
2022/07/09 04:52:42;;;;;;;1.98;0.60;;;;;;;19.34;72.41;102585.59;7389579;19;20010;-63
2022/07/09 04:55:10;;;;;;;2.42;0.52;;;;;;;19.31;72.54;102589.41;7386938;19;20366;-63
2022/07/09 04:57:37;;;;;;;1.65;0.63;;;;;;;19.34;72.54;102593.59;7388885;19;20698;-63
2022/07/09 05:00:04;;;;;;;1.85;0.68;;;;;;;19.36;72.46;102588.91;7391083;19;20087;-63
2022/07/09 05:02:32;;;;;;;1.55;0.40;;;;;;;19.37;72.43;102587.91;7389269;19;20010;-64
2022/07/09 05:04:59;;;;;;;1.83;0.57;;;;;;;19.36;72.96;102592.41;7387478;19;20038;-63
2022/07/09 05:07:25;;;;;;;2.15;0.50;;;;;;;19.37;72.48;102603.94;7383801;19;20467;-63
2022/07/09 05:09:52;;;;;;;3.38;0.50;;;;;;;19.37;72.79;102594.09;7386140;19;20031;-70
2022/07/09 05:12:19;;;;;;;2.30;0.60;;;;;;;19.38;72.88;102600.28;7388323;19;20061;-66
2022/07/09 05:14:46;;;;;;;1.83;0.50;;;;;;;19.39;72.95;102596.59;7390783;19;20534;-65
2022/07/09 05:17:13;;;;;;;1.90;0.50;;;;;;;19.39;72.91;102600.13;7386977;19;20019;-64
2022/07/09 05:19:40;;;;;;;2.03;0.70;;;;;;;19.43;72.81;102604.13;7388330;19;20010;-65
2022/07/09 05:22:07;;;;;;;1.98;0.60;;;;;;;19.43;72.93;102601.44;7387637;19;20048;-65
2022/07/09 05:24:35;;;;;;;1.42;0.50;;;;;;;19.41;73.20;102600.75;7387671;19;20455;-65
2022/07/09 05:27:03;;;;;;;6.90;0.85;;;;;;;19.41;73.19;102600.75;7387234;19;20015;-65
2022/07/09 05:29:30;;;;;;;4.30;1.35;;;;;;;19.40;73.64;102611.63;7389792;19;20014;-64
2022/07/09 05:31:57;;;;;;;3.03;0.73;;;;;;;19.43;73.60;102612.13;7388305;19;20023;-66
2022/07/09 05:34:25;;;;;;;1.05;0.60;;;;;;;19.44;73.72;102615.63;7388420;19;20110;-66
2022/07/09 05:36:52;;;;;;;2.30;0.95;;;;;;;19.42;73.73;102609.63;7385773;19;20024;-65
2022/07/09 05:39:19;;;;;;;2.28;0.60;;;;;;;19.43;73.69;102611.28;7384109;19;20011;-67
2022/07/09 05:41:45;;;;;;;2.05;0.90;;;;;;;19.45;73.78;102614.66;7387239;19;20021;-65
2022/07/09 05:44:12;;;;;;;1.45;0.50;;;;;;;19.46;73.85;102621.66;7386961;19;20018;-67
2022/07/09 05:46:41;;;;;;;1.33;0.60;;;;;;;19.46;73.98;102608.31;7388042;19;20022;-68
2022/07/09 05:49:08;;;;;;;1.45;0.60;;;;;;;19.44;73.89;102612.97;7389248;19;20022;-66
2022/07/09 05:51:39;;;;;;;3.13;0.70;;;;;;;19.45;74.14;102615.50;7384998;19;20221;-66
2022/07/09 05:54:05;;;;;;;2.58;0.60;;;;;;;19.46;73.99;102619.81;7387490;19;20353;-65
2022/07/09 05:56:34;;;;;;;1.92;0.75;;;;;;;19.50;74.08;102620.34;7385559;19;20067;-64
2022/07/09 05:59:03;;;;;;;2.22;0.75;;;;;;;19.53;74.04;102617.31;7389170;19;20018;-66
2022/07/09 06:01:30;;;;;;;2.55;0.73;;;;;;;19.57;73.95;102622.16;7388377;19;20010;-65
2022/07/09 06:03:57;;;;;;;3.35;0.80;;;;;;;19.57;74.01;102611.47;7389102;19;20028;-65
2022/07/09 06:06:24;;;;;;;2.78;0.70;;;;;;;19.62;73.83;102618.97;7386835;19;20408;-65
2022/07/09 06:08:51;;;;;;;1.70;0.70;;;;;;;19.63;73.86;102618.00;7381510;19;20019;-65
2022/07/09 06:11:18;;;;;;;2.33;0.82;;;;;;;19.68;73.74;102622.81;7387702;19;20006;-62
2022/07/09 06:13:45;;;;;;;3.95;1.17;;;;;;;19.69;73.79;102617.31;7388676;19;20018;-63
2022/07/09 06:16:12;;;;;;;1.38;0.90;;;;;;;19.69;73.54;102611.97;7388072;19;20018;-63
2022/07/09 06:18:39;;;;;;;4.65;1.20;;;;;;;19.71;73.70;102620.66;7383171;19;20021;-63
2022/07/09 06:21:06;;;;;;;4.40;1.00;;;;;;;19.71;74.07;102620.66;7385703;19;20017;-62
2022/07/09 06:23:33;;;;;;;1.95;0.85;;;;;;;19.76;74.21;102614.81;7384280;19;20082;-62
2022/07/09 06:26:00;;;;;;;3.10;1.20;;;;;;;19.78;73.79;102618.13;7386404;19;20019;-63
2022/07/09 06:28:27;;;;;;;1.98;0.88;;;;;;;19.79;73.83;102626.00;7388814;19;20491;-62
2022/07/09 06:30:54;;;;;;;2.22;1.10;;;;;;;19.83;73.58;102621.13;7386876;19;20038;-62
2022/07/09 06:33:21;;;;;;;2.85;1.00;;;;;;;19.81;73.41;102617.81;7387170;19;20045;-65
2022/07/09 06:35:48;;;;;;;5.88;2.15;;;;;;;19.87;73.66;102627.81;7385242;19;20007;-64
2022/07/09 06:38:15;;;;;;;2.30;0.70;;;;;;;19.83;73.27;102619.31;7385269;19;20014;-65
2022/07/09 06:40:41;;;;;;;3.85;0.90;;;;;;;19.79;73.86;102619.81;7386609;19;20018;-65
2022/07/09 06:43:09;;;;;;;1.27;0.60;;;;;;;19.83;73.18;102631.81;7388539;19;20483;-65
2022/07/09 06:45:36;;;;;;;2.60;0.80;;;;;;;19.85;73.37;102632.50;7384335;19;20007;-63
2022/07/09 06:48:04;;;;;;;1.88;0.60;;;;;;;19.91;72.85;102632.63;7387544;19;20026;-66
2022/07/09 06:50:31;;;;;;;2.13;0.50;;;;;;;19.88;73.47;102624.97;7382089;19;20605;-66
2022/07/09 06:52:57;;;;;;;1.13;0.50;;;;;;;19.91;73.54;102621.94;7384913;19;20015;-65
2022/07/09 06:55:24;;;;;;;1.60;0.60;;;;;;;19.96;73.09;102622.28;7384919;19;20086;-65
2022/07/09 06:57:59;;;;;;;2.58;0.93;;;;;;;20.01;73.07;102619.94;7385615;19;20017;-63
2022/07/09 07:00:26;;;;;;;2.42;0.90;;;;;;;20.09;73.07;102621.75;7385166;19;20268;-63
2022/07/09 07:02:53;;;;;;;2.35;0.50;;;;;;;20.15;72.17;102626.44;7386281;19;20014;-62
2022/07/09 07:05:20;;;;;;;1.50;0.60;;;;;;;20.23;71.37;102626.41;7384108;19;20022;-63
2022/07/09 07:07:56;;;;;;;0.68;0.38;;;;;;;20.21;71.98;102640.97;7383788;19;20018;-63
2022/07/09 07:10:23;;;;;;;4.05;0.63;;;;;;;20.19;71.97;102629.59;7381133;19;20022;-62
2022/07/09 07:12:50;;;;;;;2.25;1.10;;;;;;;20.16;72.07;102624.59;7383131;19;20078;-63
2022/07/09 07:15:17;;;;;;;2.83;0.70;;;;;;;20.18;72.02;102636.78;7384774;19;20548;-63
2022/07/09 07:17:53;;;;;;;2.15;0.57;;;;;;;20.18;72.04;102633.25;7384563;19;20010;-63
2022/07/09 07:20:26;;;;;;;1.80;0.57;;;;;;;20.16;72.06;102638.78;7385125;19;20052;-63
2022/07/09 07:22:53;;;;;;;1.73;0.40;;;;;;;20.17;72.11;102623.56;7386009;19;20018;-63
2022/07/09 07:25:20;;;;;;;1.63;0.57;;;;;;;20.21;71.97;102630.25;7384956;19;20731;-64
2022/07/09 07:27:56;;;;;;;1.95;0.60;;;;;;;20.22;72.11;102632.75;7385686;19;20018;-64
2022/07/09 07:30:23;;;;;;;2.05;0.73;;;;;;;20.15;72.42;102630.94;7384885;19;20019;-64
2022/07/09 07:32:50;;;;;;;3.15;0.63;;;;;;;20.13;72.50;102627.59;7383657;19;20107;-65
2022/07/09 07:35:17;;;;;;;2.95;0.88;;;;;;;20.16;72.80;102630.78;7381855;19;20070;-66
2022/07/09 07:37:59;;;;;;;1.05;0.50;;;;;;;20.15;72.84;102625.59;7383192;19;20021;-65
2022/07/09 07:40:26;;;;;;;2.53;0.60;;;;;;;20.19;72.91;102629.59;7383320;19;20082;-65
2022/07/09 07:42:53;;;;;;;3.85;0.90;;;;;;;20.22;72.78;102635.41;7385828;19;20093;-65
2022/07/09 07:45:20;;;;;;;2.88;0.60;;;;;;;20.25;72.79;102624.41;7384199;19;20053;-68
2022/07/09 07:47:56;;;;;;;1.65;0.70;;;;;;;20.31;72.82;102634.44;7385370;19;20034;-66
2022/07/09 07:50:23;;;;;;;1.80;0.63;;;;;;;20.36;72.05;102639.28;7381677;19;20014;-64
2022/07/09 07:52:50;;;;;;;2.80;0.60;;;;;;;20.43;71.86;102635.72;7383411;19;20019;-65
2022/07/09 07:55:17;;;;;;;3.47;0.50;;;;;;;20.54;70.62;102639.84;7380870;19;20026;-67
2022/07/09 07:58:00;;;;;;;0.82;0.40;;;;;;;20.56;70.44;102639.69;7385216;19;20015;-65
2022/07/09 08:00:27;;;;;;;1.05;0.40;;;;;;;20.58;70.35;102633.16;7384766;19;20085;-64
2022/07/09 08:02:54;;;;;;;1.50;0.50;;;;;;;20.61;70.37;102635.50;7385640;19;20436;-68
2022/07/09 08:05:22;;;;;;;1.02;0.50;;;;;;;20.62;70.40;102639.00;7382272;19;20014;-65
2022/07/09 08:07:56;;;;;;;1.77;0.50;;;;;;;20.65;70.28;102633.28;7385469;19;20011;-65
2022/07/09 08:10:24;;;;;;;2.17;0.40;;;;;;;20.65;70.05;102631.47;7378919;19;20025;-66
2022/07/09 08:12:51;;;;;;;1.77;0.70;;;;;;;20.68;70.27;102632.94;7385597;19;20038;-65
2022/07/09 08:15:17;;;;;;;1.08;0.43;;;;;;;20.68;70.13;102632.94;7383169;19;20015;-65
2022/07/09 08:17:59;;;;;;;2.20;0.57;;;;;;;20.66;69.40;102633.13;7383078;19;20041;-65
2022/07/09 08:20:41;;;;;;;2.83;0.40;;;;;;;20.68;69.06;102632.94;7390654;19;20019;-65
2022/07/09 08:23:10;;;;;;;1.35;0.40;;;;;;;20.71;68.88;102630.75;7388664;19;20369;-67
2022/07/09 08:25:37;;;;;;;1.33;0.40;;;;;;;20.75;67.64;102629.41;7387394;19;20015;-66
2022/07/09 08:28:05;;;;;;;1.50;0.45;;;;;;;20.73;68.06;102619.84;7390778;19;20099;-66
2022/07/09 08:30:32;;;;;;;1.20;0.30;;;;;;;20.71;68.69;102636.13;7391312;19;20029;-65
2022/07/09 08:32:59;;;;;;;0.70;0.40;;;;;;;20.73;68.00;102635.91;7386988;19;20024;-65
2022/07/09 08:35:26;;;;;;;1.02;0.30;;;;;;;20.71;68.19;102620.06;7389668;19;20015;-66
2022/07/09 08:37:57;;;;;;;1.77;0.40;;;;;;;20.72;68.13;102631.59;7387774;19;20014;-65
2022/07/09 08:40:38;;;;;;;1.00;0.40;;;;;;;20.72;68.29;102634.28;7387749;19;20019;-65
2022/07/09 08:43:05;;;;;;;1.10;0.40;;;;;;;20.75;67.76;102640.09;7390012;19;20017;-65
2022/07/09 08:45:34;;;;;;;1.60;0.40;;;;;;;20.73;67.98;102635.91;7390714;19;20383;-66
2022/07/09 08:48:02;;;;;;;3.00;0.68;;;;;;;20.73;68.27;102631.41;7391594;19;20424;-67
2022/07/09 08:50:29;;;;;;;1.27;0.50;;;;;;;20.82;67.83;102627.69;7387863;19;20025;-66
2022/07/09 08:52:56;;;;;;;1.02;0.40;;;;;;;20.86;67.46;102628.16;7388963;19;20358;-66
2022/07/09 08:55:41;;;;;;;0.65;0.40;;;;;;;20.83;68.19;102621.31;7386308;19;20671;-67
2022/07/09 08:58:33;;;;;;;1.02;0.32;;;;;;;20.77;68.26;102627.38;7390092;19;20019;-66
2022/07/09 09:01:21;;;;;;;0.68;0.40;;;;;;;20.73;68.80;102623.38;7390667;19;20343;-65
2022/07/09 09:03:58;;;;;;;3.28;0.40;;;;;;;20.75;68.16;102620.53;7387801;19;20019;-66
2022/07/09 09:06:28;;;;;;;1.58;0.35;;;;;;;20.65;68.24;102628.78;7386119;19;20036;-65
2022/07/09 09:08:55;;;;;;;0.85;0.30;;;;;;;20.66;67.70;102635.81;7389079;19;20026;-65
2022/07/09 09:11:25;;;;;;;0.93;0.43;;;;;;;20.67;67.97;102628.63;7384367;19;20086;-65
2022/07/09 09:13:53;;;;;;;1.17;0.30;;;;;;;20.68;68.22;102627.56;7387482;19;20501;-65
2022/07/09 09:16:22;;;;;;;0.70;0.30;;;;;;;20.74;67.91;102621.53;7387375;19;20018;-65
2022/07/09 09:18:51;;;;;;;2.25;0.30;;;;;;;20.77;67.58;102629.22;7388128;19;20054;-65
2022/07/09 09:21:22;;;;;;;2.20;0.30;;;;;;;20.78;67.61;102628.19;7388412;19;20371;-62
2022/07/09 09:23:54;;;;;;;2.15;0.40;;;;;;;20.83;67.36;102628.50;7385715;19;20031;-63
2022/07/09 09:26:24;;;;;;;0.60;0.30;;;;;;;20.89;66.52;102625.13;7385441;19;20014;-63
2022/07/09 09:28:57;;;;;;;0.95;0.30;;;;;;;20.90;66.83;102629.47;7386009;19;21057;-63
2022/07/09 09:31:30;;;;;;;0.80;0.40;;;;;;;20.96;66.39;102627.94;7387187;19;20053;-63
2022/07/09 09:34:13;;;;;;;5.25;0.28;;;;;;;20.96;66.92;102620.75;7387682;19;20014;-63
2022/07/09 09:36:56;;;;;;;1.00;0.32;;;;;;;21.01;66.71;102621.06;7386205;19;20456;-63
2022/07/09 09:39:29;;;;;;;0.88;0.45;;;;;;;21.03;66.63;102624.38;7385102;19;20058;-62
2022/07/09 09:41:58;;;;;;;2.00;0.30;;;;;;;21.00;66.77;102627.41;7387705;19;20110;-63
2022/07/09 09:44:29;;;;;;;1.52;0.30;;;;;;;21.03;66.44;102631.59;7388037;19;20015;-64
2022/07/09 09:46:57;;;;;;;0.55;0.25;;;;;;;21.05;66.40;102626.88;7386358;19;20022;-62
2022/07/09 09:49:25;;;;;;;0.55;0.30;;;;;;;21.10;66.19;102619.16;7375748;19;20018;-62
2022/07/09 09:51:54;;;;;;;0.60;0.30;;;;;;;21.19;65.67;102620.78;7386011;19;20032;-63
2022/07/09 09:54:22;;;;;;;0.57;0.20;;;;;;;21.29;65.24;102616.03;7382840;19;20355;-62
2022/07/09 09:56:50;;;;;;;2.13;0.40;;;;;;;21.40;64.54;102625.47;7383880;19;20038;-63
2022/07/09 09:59:17;;;;;;;1.15;0.40;;;;;;;21.60;62.56;102622.13;7384433;19;20018;-63
2022/07/09 10:01:45;;;;;;;1.85;0.30;;;;;;;21.69;61.38;102618.34;7385889;19;20566;-63
2022/07/09 10:04:18;;;;;;;1.17;0.20;;;;;;;21.72;61.52;102619.84;7387515;19;20023;-66
2022/07/09 10:06:45;;;;;;;0.60;0.20;;;;;;;21.78;62.00;102627.16;7386308;19;20768;-66
2022/07/09 10:09:13;;;;;;;1.10;0.20;;;;;;;21.95;59.26;102623.31;7383023;19;20022;-66
2022/07/09 10:11:46;;;;;;;1.00;0.30;;;;;;;22.06;59.50;102612.16;7383113;19;20059;-66
2022/07/09 10:14:25;;;;;;;0.98;0.40;;;;;;;22.15;58.78;102608.34;7383516;19;20170;-66
2022/07/09 10:16:52;;;;;;;0.82;0.30;;;;;;;22.21;59.10;102616.69;7387048;19;20363;-66
2022/07/09 10:19:29;;;;;;;0.63;0.30;;;;;;;22.26;59.36;102619.63;7383140;19;20007;-64
2022/07/09 10:21:58;;;;;;;0.30;0.20;;;;;;;22.30;58.34;102618.28;7383356;19;20014;-65
2022/07/09 10:24:29;;;;;;;0.43;0.20;;;;;;;22.41;58.13;102631.19;7385065;19;20097;-65
2022/07/09 10:27:10;;;;;;;1.25;0.22;;;;;;;22.54;57.19;102631.38;7386167;19;20074;-66
2022/07/09 10:29:58;;;;;;;2.85;0.30;;;;;;;22.65;57.01;102630.06;7386183;19;20537;-66
2022/07/09 10:32:30;;;;;;;0.73;0.30;;;;;;;22.76;56.95;102625.06;7384971;19;20014;-66
2022/07/09 10:34:59;;;;;;;0.88;0.30;;;;;;;22.90;54.55;102623.38;7385208;19;20435;-67
2022/07/09 10:37:56;;;;;;;0.80;0.35;;;;;;;22.96;53.76;102622.59;7382296;19;20019;-65
2022/07/09 10:40:24;;;;;;;1.48;0.32;;;;;;;23.02;53.63;102616.47;7384562;19;20011;-66
2022/07/09 10:42:59;;;;;;;1.50;0.30;;;;;;;23.11;53.26;102627.94;7384597;19;20332;-65
2022/07/09 10:45:31;;;;;;;1.35;0.30;;;;;;;23.18;53.37;102626.13;7384103;19;20039;-65
2022/07/09 10:47:59;;;;;;;1.52;0.20;;;;;;;23.26;53.71;102609.91;7387156;19;20019;-65
2022/07/09 10:50:28;;;;;;;0.50;0.20;;;;;;;23.28;53.91;102608.66;7381739;19;20074;-66
2022/07/09 10:52:56;;;;;;;0.40;0.20;;;;;;;23.34;53.11;102609.75;7383290;19;20030;-66
2022/07/09 10:55:26;;;;;;;1.35;0.35;;;;;;;23.35;52.02;102611.44;7382009;19;20017;-66
2022/07/09 10:57:57;;;;;;;1.45;0.40;;;;;;;23.24;51.65;102610.09;7385873;19;20046;-67
2022/07/09 11:00:26;;;;;;;2.00;0.30;;;;;;;23.25;51.66;102606.38;7381679;19;20015;-66
2022/07/09 11:03:03;;;;;;;0.52;0.20;;;;;;;23.19;52.34;102603.63;7385936;19;20117;-64
2022/07/09 11:05:33;;;;;;;0.50;0.30;;;;;;;23.29;51.59;102593.38;7383868;19;20010;-64
2022/07/09 11:08:06;;;;;;;0.68;0.28;;;;;;;23.32;52.05;102596.50;7384204;19;20086;-65
2022/07/09 11:10:35;;;;;;;1.60;0.38;;;;;;;23.34;52.03;102586.41;7383777;19;20023;-65
2022/07/09 11:13:06;;;;;;;0.82;0.30;;;;;;;23.33;51.30;102592.81;7380828;19;20033;-65
2022/07/09 11:15:34;;;;;;;1.25;0.20;;;;;;;23.37;51.52;102598.59;7378751;19;20580;-65
2022/07/09 11:18:04;;;;;;;1.10;0.30;;;;;;;23.45;51.25;102614.66;7383077;19;20027;-65
2022/07/09 11:20:37;;;;;;;1.25;0.35;;;;;;;23.46;50.43;102599.34;7381772;19;20389;-65
2022/07/09 11:23:04;;;;;;;;;;;;;;;23.43;49.82;102596.00;7382585;19;20331;-62
2022/07/09 11:25:31;;;;;;;2.00;0.32;;;;;;;23.37;50.15;102594.06;7381915;19;19918;-62
2022/07/09 11:28:04;;;;;;;0.77;0.20;;;;;;;23.40;49.64;102599.06;7382047;19;20511;-63
2022/07/09 11:30:39;;;;;;;1.30;0.20;;;;;;;23.34;50.13;102610.59;7382672;19;20014;-63
2022/07/09 11:33:05;;;;;;;0.77;0.30;;;;;;;23.30;50.36;102606.63;7382110;19;20526;-63